Katy, TX (77450)

6:14 PM CST on February 08, 2016 (GMT -0600)
Dave's Corner | | Change Station
CLOSE
Current Station
Personal Weather Station
Location: Katy, TX
Elevation: 115 ft
Nearby Weather Stations
Active Advisory: Fire Weather Warning

Elev 115 ft 29.77 °N, 95.73 °W | Updated 2 seconds ago

Clear
Clear
57.4 °F
Feels Like 57.4 °F
N
4.5
Wind Variable Wind from South
Gusts 6.0 mph

Today
High -- | Low -- °F
--% Chance of Precip.
Yesterday
High -- | Low -- °F
Precip. -- in
Pressure 30.26 in
Visibility 10.0 miles
Clouds Clear
Dew Point 1 °F
Humidity 10%
Rainfall 0.02 in
Snow Depth Not available.
7:08 AM 6:06 PM
New Moon, 0% visible
METAR KTME 082355Z AUTO 33008KT 10SM CLR 13/M07 A3026 RMK AO2
Pressure 30.26 in
Visibility 10.0 miles
Clouds Clear
Dew Point 1 °F
Humidity 10%
Rainfall 0.02 in
Snow Depth Not available.
7:08 AM 6:06 PM
New Moon, 0% visible
METAR KTME 082355Z AUTO 33008KT 10SM CLR 13/M07 A3026 RMK AO2

10-Day Weather Forecast

Almanac

Astronomy

Feb. 08, 2016 Rise Set
Actual Time
Civil Twilight
Nautical Twilight
Astronomical Twilight
Moon
Length of Visible Light
Length of Day
Tomorrow will be .
, % of the Moon is Illuminated

Today's Extremes

State Highs State Lows

Community

WunderPhotos

Upload Photos

1,891,527 photos uploaded!

WunderBlog® & News

Nearby

Air Quality

  Air Quality AQ Index Pollutant
Not available.

Snow Depth

Station Depth Elevation

Earthquake Activity

City Distance Mag. Time & Date
Minimum magnitude displayed is 2.5.

Coastal Water Temperatures

Place Temperature

Stations

Nearby Weather Stations

Station Location Temp. Windchill Dew Point Humidity Wind Precip. Elev Updated Type
                   

Watches & Warnings

Fire Weather Warning
Issued: 2:07 PM CST Feb. 8, 2016 – National Weather Service

... Red flag warning remains in effect until 7 PM CST this evening
for strong gusty winds and very low humidity across southeast
Texas...

* affected counties... Houston... Trinity... Madison... Walker...
San Jacinto... Polk... Burleson... Brazos... Washington...
Grimes... Montgomery... Liberty... Colorado... Austin... Waller...
Harris... Chambers... Wharton... Fort Bend... Jackson...
Matagorda... Brazoria... Galveston.

* Wind... north to northwest winds 15 to 25 mph with frequent
gusts of 30 to 35 mph.

* Humidity... 10 to 20 percent.

* Impacts... dangerous wildfire burning conditions with the
potential for fire starts with very rapid expansion of the
fire.

Precautionary/preparedness actions...

A red flag warning means that critical fire weather conditions
are either occurring now... or will shortly. A combination of
strong winds... low relative humidity... and warm temperatures will
create explosive fire growth potential.